sensor_id;sensor_type;location;lat;lon;timestamp;temperature;humidity
67131;HTU21D;54051;53.464;49.532;2023-06-14T00:01:53;17.19;45.38
67131;HTU21D;54051;53.464;49.532;2023-06-14T00:04:19;17.20;45.20
67131;HTU21D;54051;53.464;49.532;2023-06-14T00:06:46;17.22;45.09
67131;HTU21D;54051;53.464;49.532;2023-06-14T00:09:12;17.23;45.21
67131;HTU21D;54051;53.464;49.532;2023-06-14T00:11:42;17.26;44.93
67131;HTU21D;54051;53.464;49.532;2023-06-14T00:14:08;17.30;44.87
67131;HTU21D;54051;53.464;49.532;2023-06-14T00:16:34;17.30;44.75
67131;HTU21D;54051;53.464;49.532;2023-06-14T00:19:03;17.35;44.42
67131;HTU21D;54051;53.464;49.532;2023-06-14T00:21:30;17.39;44.48
67131;HTU21D;54051;53.464;49.532;2023-06-14T00:23:57;17.41;44.29
67131;HTU21D;54051;53.464;49.532;2023-06-14T00:26:24;17.40;44.61
67131;HTU21D;54051;53.464;49.532;2023-06-14T00:28:52;17.36;45.11
67131;HTU21D;54051;53.464;49.532;2023-06-14T00:31:18;17.32;45.28
67131;HTU21D;54051;53.464;49.532;2023-06-14T00:33:44;17.29;45.33
67131;HTU21D;54051;53.464;49.532;2023-06-14T00:36:10;17.28;46.02
67131;HTU21D;54051;53.464;49.532;2023-06-14T00:38:36;17.24;46.08
67131;HTU21D;54051;53.464;49.532;2023-06-14T00:41:02;17.19;46.25
67131;HTU21D;54051;53.464;49.532;2023-06-14T00:43:29;17.15;46.76
67131;HTU21D;54051;53.464;49.532;2023-06-14T00:45:55;17.13;47.39
67131;HTU21D;54051;53.464;49.532;2023-06-14T00:48:21;17.07;47.76
67131;HTU21D;54051;53.464;49.532;2023-06-14T00:50:48;17.05;47.73
67131;HTU21D;54051;53.464;49.532;2023-06-14T00:53:16;16.99;48.57
67131;HTU21D;54051;53.464;49.532;2023-06-14T00:55:43;16.93;49.34
67131;HTU21D;54051;53.464;49.532;2023-06-14T00:58:10;16.85;49.82
67131;HTU21D;54051;53.464;49.532;2023-06-14T01:00:36;16.81;50.62
67131;HTU21D;54051;53.464;49.532;2023-06-14T01:03:02;16.78;50.92
67131;HTU21D;54051;53.464;49.532;2023-06-14T01:05:30;16.76;52.32
67131;HTU21D;54051;53.464;49.532;2023-06-14T01:08:14;16.77;52.29
67131;HTU21D;54051;53.464;49.532;2023-06-14T01:10:56;16.75;52.54
67131;HTU21D;54051;53.464;49.532;2023-06-14T01:13:35;16.71;52.88
67131;HTU21D;54051;53.464;49.532;2023-06-14T01:16:02;16.72;53.46
67131;HTU21D;54051;53.464;49.532;2023-06-14T01:18:29;16.75;53.60
67131;HTU21D;54051;53.464;49.532;2023-06-14T01:20:55;16.73;53.67
67131;HTU21D;54051;53.464;49.532;2023-06-14T01:23:23;16.69;53.98
67131;HTU21D;54051;53.464;49.532;2023-06-14T01:25:49;16.64;53.72
67131;HTU21D;54051;53.464;49.532;2023-06-14T01:28:20;16.62;53.01
67131;HTU21D;54051;53.464;49.532;2023-06-14T01:30:51;16.65;52.76
67131;HTU21D;54051;53.464;49.532;2023-06-14T01:33:25;16.70;52.53
67131;HTU21D;54051;53.464;49.532;2023-06-14T01:35:52;16.75;52.12
67131;HTU21D;54051;53.464;49.532;2023-06-14T01:38:24;16.74;51.88
67131;HTU21D;54051;53.464;49.532;2023-06-14T01:40:52;16.73;51.91
67131;HTU21D;54051;53.464;49.532;2023-06-14T01:43:18;16.64;51.98
67131;HTU21D;54051;53.464;49.532;2023-06-14T01:45:45;16.59;52.28
67131;HTU21D;54051;53.464;49.532;2023-06-14T01:48:12;16.63;52.36
67131;HTU21D;54051;53.464;49.532;2023-06-14T01:50:39;16.60;52.57
67131;HTU21D;54051;53.464;49.532;2023-06-14T01:53:09;16.56;52.65
67131;HTU21D;54051;53.464;49.532;2023-06-14T01:55:35;16.62;52.55
67131;HTU21D;54051;53.464;49.532;2023-06-14T01:58:04;16.71;52.19
67131;HTU21D;54051;53.464;49.532;2023-06-14T02:00:30;16.72;52.14
67131;HTU21D;54051;53.464;49.532;2023-06-14T02:02:56;16.76;52.03
67131;HTU21D;54051;53.464;49.532;2023-06-14T02:05:23;16.85;51.71
67131;HTU21D;54051;53.464;49.532;2023-06-14T02:07:50;16.87;51.07
67131;HTU21D;54051;53.464;49.532;2023-06-14T02:10:18;16.96;51.20
67131;HTU21D;54051;53.464;49.532;2023-06-14T02:12:44;17.08;50.43
67131;HTU21D;54051;53.464;49.532;2023-06-14T02:15:10;17.14;50.34
67131;HTU21D;54051;53.464;49.532;2023-06-14T02:17:46;17.05;50.66
67131;HTU21D;54051;53.464;49.532;2023-06-14T02:20:13;17.05;50.93
67131;HTU21D;54051;53.464;49.532;2023-06-14T02:22:39;17.02;50.98
67131;HTU21D;54051;53.464;49.532;2023-06-14T02:25:05;16.98;51.79
67131;HTU21D;54051;53.464;49.532;2023-06-14T02:27:32;16.96;52.39
67131;HTU21D;54051;53.464;49.532;2023-06-14T02:29:58;16.93;52.54
67131;HTU21D;54051;53.464;49.532;2023-06-14T02:32:24;16.87;52.94
67131;HTU21D;54051;53.464;49.532;2023-06-14T02:34:50;16.82;53.40
67131;HTU21D;54051;53.464;49.532;2023-06-14T02:37:16;16.74;53.73
67131;HTU21D;54051;53.464;49.532;2023-06-14T02:39:42;16.66;53.93
67131;HTU21D;54051;53.464;49.532;2023-06-14T02:42:08;16.66;53.91
67131;HTU21D;54051;53.464;49.532;2023-06-14T02:44:34;16.74;53.44
67131;HTU21D;54051;53.464;49.532;2023-06-14T02:47:00;16.79;52.77
67131;HTU21D;54051;53.464;49.532;2023-06-14T02:49:26;16.86;52.40
67131;HTU21D;54051;53.464;49.532;2023-06-14T02:51:52;16.91;52.39
67131;HTU21D;54051;53.464;49.532;2023-06-14T02:54:18;16.92;52.16
67131;HTU21D;54051;53.464;49.532;2023-06-14T02:56:45;16.90;52.28
67131;HTU21D;54051;53.464;49.532;2023-06-14T02:59:11;16.88;52.21
67131;HTU21D;54051;53.464;49.532;2023-06-14T03:01:39;16.86;52.67
67131;HTU21D;54051;53.464;49.532;2023-06-14T03:04:09;16.91;52.66
67131;HTU21D;54051;53.464;49.532;2023-06-14T03:06:36;16.99;52.43
67131;HTU21D;54051;53.464;49.532;2023-06-14T03:09:03;17.09;51.78
67131;HTU21D;54051;53.464;49.532;2023-06-14T03:11:35;17.21;52.07
67131;HTU21D;54051;53.464;49.532;2023-06-14T03:14:01;17.38;51.66
67131;HTU21D;54051;53.464;49.532;2023-06-14T03:16:29;17.56;51.15
67131;HTU21D;54051;53.464;49.532;2023-06-14T03:18:57;17.63;50.98
67131;HTU21D;54051;53.464;49.532;2023-06-14T03:21:23;17.74;51.03
67131;HTU21D;54051;53.464;49.532;2023-06-14T03:23:49;17.80;50.74
67131;HTU21D;54051;53.464;49.532;2023-06-14T03:26:15;17.84;50.72
67131;HTU21D;54051;53.464;49.532;2023-06-14T03:28:47;17.70;51.40
67131;HTU21D;54051;53.464;49.532;2023-06-14T03:31:14;17.63;52.29
67131;HTU21D;54051;53.464;49.532;2023-06-14T03:33:40;17.51;53.10
67131;HTU21D;54051;53.464;49.532;2023-06-14T03:36:06;17.50;53.43
67131;HTU21D;54051;53.464;49.532;2023-06-14T03:38:33;17.32;53.80
67131;HTU21D;54051;53.464;49.532;2023-06-14T03:40:59;17.32;54.10
67131;HTU21D;54051;53.464;49.532;2023-06-14T03:43:25;17.28;54.07
67131;HTU21D;54051;53.464;49.532;2023-06-14T03:45:51;17.28;53.90
67131;HTU21D;54051;53.464;49.532;2023-06-14T03:48:17;17.28;54.10
67131;HTU21D;54051;53.464;49.532;2023-06-14T03:50:43;17.16;54.61
67131;HTU21D;54051;53.464;49.532;2023-06-14T03:53:10;17.03;55.16
67131;HTU21D;54051;53.464;49.532;2023-06-14T03:55:36;16.94;55.97
67131;HTU21D;54051;53.464;49.532;2023-06-14T03:58:03;16.95;58.19
67131;HTU21D;54051;53.464;49.532;2023-06-14T04:00:29;16.94;58.25
67131;HTU21D;54051;53.464;49.532;2023-06-14T04:02:55;16.92;59.57
67131;HTU21D;54051;53.464;49.532;2023-06-14T04:05:21;16.95;60.10
67131;HTU21D;54051;53.464;49.532;2023-06-14T04:07:48;16.99;60.73
67131;HTU21D;54051;53.464;49.532;2023-06-14T04:10:17;16.95;62.11
67131;HTU21D;54051;53.464;49.532;2023-06-14T04:12:43;16.91;62.03
67131;HTU21D;54051;53.464;49.532;2023-06-14T04:15:09;16.81;62.45
67131;HTU21D;54051;53.464;49.532;2023-06-14T04:17:36;16.69;62.93
67131;HTU21D;54051;53.464;49.532;2023-06-14T04:20:03;16.61;62.92
67131;HTU21D;54051;53.464;49.532;2023-06-14T04:22:31;16.61;64.61
67131;HTU21D;54051;53.464;49.532;2023-06-14T04:24:57;16.52;64.13
67131;HTU21D;54051;53.464;49.532;2023-06-14T04:27:23;16.49;65.44
67131;HTU21D;54051;53.464;49.532;2023-06-14T04:29:52;16.67;65.04
67131;HTU21D;54051;53.464;49.532;2023-06-14T04:32:28;16.81;66.87
67131;HTU21D;54051;53.464;49.532;2023-06-14T04:34:59;17.07;66.72
67131;HTU21D;54051;53.464;49.532;2023-06-14T04:37:29;17.00;64.57
67131;HTU21D;54051;53.464;49.532;2023-06-14T04:39:56;16.94;65.53
67131;HTU21D;54051;53.464;49.532;2023-06-14T04:42:23;16.84;65.17
67131;HTU21D;54051;53.464;49.532;2023-06-14T04:44:51;16.63;66.69
67131;HTU21D;54051;53.464;49.532;2023-06-14T04:47:21;16.52;66.61
67131;HTU21D;54051;53.464;49.532;2023-06-14T04:49:47;16.54;66.86
67131;HTU21D;54051;53.464;49.532;2023-06-14T04:52:13;16.82;67.07
67131;HTU21D;54051;53.464;49.532;2023-06-14T04:54:40;17.15;64.27
67131;HTU21D;54051;53.464;49.532;2023-06-14T04:57:08;17.50;63.52
67131;HTU21D;54051;53.464;49.532;2023-06-14T04:59:34;17.62;63.27
67131;HTU21D;54051;53.464;49.532;2023-06-14T05:02:01;17.76;61.76
67131;HTU21D;54051;53.464;49.532;2023-06-14T05:04:27;17.94;63.82
67131;HTU21D;54051;53.464;49.532;2023-06-14T05:06:54;18.29;60.89
67131;HTU21D;54051;53.464;49.532;2023-06-14T05:09:23;18.19;59.65
67131;HTU21D;54051;53.464;49.532;2023-06-14T05:11:49;18.19;60.87
67131;HTU21D;54051;53.464;49.532;2023-06-14T05:14:16;18.26;60.55
67131;HTU21D;54051;53.464;49.532;2023-06-14T05:16:43;18.03;61.17
67131;HTU21D;54051;53.464;49.532;2023-06-14T05:19:09;17.81;62.60
67131;HTU21D;54051;53.464;49.532;2023-06-14T05:21:36;17.96;61.65
67131;HTU21D;54051;53.464;49.532;2023-06-14T05:24:02;18.10;61.78
67131;HTU21D;54051;53.464;49.532;2023-06-14T05:26:28;18.34;61.98
67131;HTU21D;54051;53.464;49.532;2023-06-14T05:28:57;18.76;57.36
67131;HTU21D;54051;53.464;49.532;2023-06-14T05:31:41;19.20;57.65
67131;HTU21D;54051;53.464;49.532;2023-06-14T05:34:07;19.77;56.03
67131;HTU21D;54051;53.464;49.532;2023-06-14T05:36:33;20.10;54.75
67131;HTU21D;54051;53.464;49.532;2023-06-14T05:38:59;20.81;52.50
67131;HTU21D;54051;53.464;49.532;2023-06-14T05:41:27;20.90;53.04
67131;HTU21D;54051;53.464;49.532;2023-06-14T05:43:54;21.17;51.66
67131;HTU21D;54051;53.464;49.532;2023-06-14T05:46:21;21.03;52.56
67131;HTU21D;54051;53.464;49.532;2023-06-14T05:48:51;20.86;54.76
67131;HTU21D;54051;53.464;49.532;2023-06-14T05:51:17;20.79;53.92
67131;HTU21D;54051;53.464;49.532;2023-06-14T05:53:47;20.74;53.19
67131;HTU21D;54051;53.464;49.532;2023-06-14T05:56:14;20.54;54.06
67131;HTU21D;54051;53.464;49.532;2023-06-14T05:58:40;20.09;54.61
67131;HTU21D;54051;53.464;49.532;2023-06-14T06:01:06;19.95;56.32
67131;HTU21D;54051;53.464;49.532;2023-06-14T06:03:32;19.83;57.30
67131;HTU21D;54051;53.464;49.532;2023-06-14T06:05:59;19.60;57.07
67131;HTU21D;54051;53.464;49.532;2023-06-14T06:08:26;19.30;57.98
67131;HTU21D;54051;53.464;49.532;2023-06-14T06:10:53;19.31;57.80
67131;HTU21D;54051;53.464;49.532;2023-06-14T06:13:19;20.63;54.78
67131;HTU21D;54051;53.464;49.532;2023-06-14T06:15:45;23.09;46.92
67131;HTU21D;54051;53.464;49.532;2023-06-14T06:18:12;23.94;44.65
67131;HTU21D;54051;53.464;49.532;2023-06-14T06:20:37;23.64;45.22
67131;HTU21D;54051;53.464;49.532;2023-06-14T06:23:03;23.03;46.93
67131;HTU21D;54051;53.464;49.532;2023-06-14T06:25:29;22.75;47.94
67131;HTU21D;54051;53.464;49.532;2023-06-14T06:27:57;22.03;49.82
67131;HTU21D;54051;53.464;49.532;2023-06-14T06:30:24;22.14;49.47
67131;HTU21D;54051;53.464;49.532;2023-06-14T06:32:51;23.27;46.55
67131;HTU21D;54051;53.464;49.532;2023-06-14T06:35:17;25.09;41.71
67131;HTU21D;54051;53.464;49.532;2023-06-14T06:37:43;26.06;38.93
67131;HTU21D;54051;53.464;49.532;2023-06-14T06:40:09;25.92;39.91
67131;HTU21D;54051;53.464;49.532;2023-06-14T06:42:36;24.93;41.78
67131;HTU21D;54051;53.464;49.532;2023-06-14T06:45:02;24.00;45.19
67131;HTU21D;54051;53.464;49.532;2023-06-14T06:47:28;22.72;47.76
67131;HTU21D;54051;53.464;49.532;2023-06-14T06:49:54;21.66;50.16
67131;HTU21D;54051;53.464;49.532;2023-06-14T06:52:20;21.20;51.32
67131;HTU21D;54051;53.464;49.532;2023-06-14T06:54:46;20.70;52.62
67131;HTU21D;54051;53.464;49.532;2023-06-14T06:57:12;20.37;53.93
67131;HTU21D;54051;53.464;49.532;2023-06-14T06:59:39;20.62;54.24
67131;HTU21D;54051;53.464;49.532;2023-06-14T07:02:05;21.05;52.69
67131;HTU21D;54051;53.464;49.532;2023-06-14T07:04:31;21.68;50.00
67131;HTU21D;54051;53.464;49.532;2023-06-14T07:06:57;23.15;46.51
67131;HTU21D;54051;53.464;49.532;2023-06-14T07:09:23;24.69;42.56
67131;HTU21D;54051;53.464;49.532;2023-06-14T07:11:50;25.10;41.60
67131;HTU21D;54051;53.464;49.532;2023-06-14T07:14:16;24.18;43.80
67131;HTU21D;54051;53.464;49.532;2023-06-14T07:16:42;23.50;45.17
67131;HTU21D;54051;53.464;49.532;2023-06-14T07:19:09;23.01;45.82
67131;HTU21D;54051;53.464;49.532;2023-06-14T07:21:36;23.12;46.06
67131;HTU21D;54051;53.464;49.532;2023-06-14T07:24:07;23.58;44.55
67131;HTU21D;54051;53.464;49.532;2023-06-14T07:26:34;23.30;45.28
67131;HTU21D;54051;53.464;49.532;2023-06-14T07:29:01;22.71;46.41
67131;HTU21D;54051;53.464;49.532;2023-06-14T07:31:27;22.24;47.58
67131;HTU21D;54051;53.464;49.532;2023-06-14T07:33:54;22.13;47.48
67131;HTU21D;54051;53.464;49.532;2023-06-14T07:36:20;22.26;47.47
67131;HTU21D;54051;53.464;49.532;2023-06-14T07:38:46;22.26;47.49
67131;HTU21D;54051;53.464;49.532;2023-06-14T07:41:12;22.35;45.83
67131;HTU21D;54051;53.464;49.532;2023-06-14T07:43:40;22.22;46.32
67131;HTU21D;54051;53.464;49.532;2023-06-14T07:46:06;22.14;46.35
67131;HTU21D;54051;53.464;49.532;2023-06-14T07:48:34;22.18;46.06
67131;HTU21D;54051;53.464;49.532;2023-06-14T07:51:00;22.14;45.26
67131;HTU21D;54051;53.464;49.532;2023-06-14T07:53:26;22.07;45.77
67131;HTU21D;54051;53.464;49.532;2023-06-14T07:55:52;22.39;45.00
67131;HTU21D;54051;53.464;49.532;2023-06-14T07:58:18;22.83;43.94
67131;HTU21D;54051;53.464;49.532;2023-06-14T08:00:44;23.35;41.87
67131;HTU21D;54051;53.464;49.532;2023-06-14T08:03:11;23.24;42.11
67131;HTU21D;54051;53.464;49.532;2023-06-14T08:05:37;23.42;42.14
67131;HTU21D;54051;53.464;49.532;2023-06-14T08:08:04;23.59;42.28
67131;HTU21D;54051;53.464;49.532;2023-06-14T08:10:30;23.91;41.23
67131;HTU21D;54051;53.464;49.532;2023-06-14T08:12:58;23.95;41.77
67131;HTU21D;54051;53.464;49.532;2023-06-14T08:15:24;24.27;41.77
67131;HTU21D;54051;53.464;49.532;2023-06-14T08:17:50;24.16;41.59
67131;HTU21D;54051;53.464;49.532;2023-06-14T08:20:16;24.16;42.28
67131;HTU21D;54051;53.464;49.532;2023-06-14T08:22:43;24.05;42.66
67131;HTU21D;54051;53.464;49.532;2023-06-14T08:25:09;24.09;42.73
67131;HTU21D;54051;53.464;49.532;2023-06-14T08:27:37;24.16;42.90
67131;HTU21D;54051;53.464;49.532;2023-06-14T08:30:04;24.25;43.47
67131;HTU21D;54051;53.464;49.532;2023-06-14T08:32:30;24.40;42.93
67131;HTU21D;54051;53.464;49.532;2023-06-14T08:34:56;24.70;42.58
67131;HTU21D;54051;53.464;49.532;2023-06-14T08:37:22;24.72;42.94
67131;HTU21D;54051;53.464;49.532;2023-06-14T08:39:48;24.64;42.77
67131;HTU21D;54051;53.464;49.532;2023-06-14T08:42:14;24.53;43.46
67131;HTU21D;54051;53.464;49.532;2023-06-14T08:44:41;24.66;43.46
67131;HTU21D;54051;53.464;49.532;2023-06-14T08:47:07;24.94;42.95
67131;HTU21D;54051;53.464;49.532;2023-06-14T08:49:36;25.02;43.38
67131;HTU21D;54051;53.464;49.532;2023-06-14T08:52:05;25.12;44.22
67131;HTU21D;54051;53.464;49.532;2023-06-14T08:54:33;24.84;44.38
67131;HTU21D;54051;53.464;49.532;2023-06-14T08:57:03;24.76;44.87
67131;HTU21D;54051;53.464;49.532;2023-06-14T08:59:32;25.24;43.16
67131;HTU21D;54051;53.464;49.532;2023-06-14T09:02:06;25.54;43.28
67131;HTU21D;54051;53.464;49.532;2023-06-14T09:04:32;25.89;42.59
67131;HTU21D;54051;53.464;49.532;2023-06-14T09:06:59;25.71;42.42
67131;HTU21D;54051;53.464;49.532;2023-06-14T09:09:25;25.25;43.91
67131;HTU21D;54051;53.464;49.532;2023-06-14T09:11:54;25.29;43.59
67131;HTU21D;54051;53.464;49.532;2023-06-14T09:14:23;24.65;45.67
67131;HTU21D;54051;53.464;49.532;2023-06-14T09:16:52;24.30;47.81
67131;HTU21D;54051;53.464;49.532;2023-06-14T09:19:23;24.63;46.34
67131;HTU21D;54051;53.464;49.532;2023-06-14T09:21:49;24.60;46.18
67131;HTU21D;54051;53.464;49.532;2023-06-14T09:24:17;24.63;46.40
67131;HTU21D;54051;53.464;49.532;2023-06-14T09:26:43;24.87;45.03
67131;HTU21D;54051;53.464;49.532;2023-06-14T09:29:12;24.42;46.06
67131;HTU21D;54051;53.464;49.532;2023-06-14T09:31:38;24.08;46.88
67131;HTU21D;54051;53.464;49.532;2023-06-14T09:34:05;23.79;48.28
67131;HTU21D;54051;53.464;49.532;2023-06-14T09:36:32;23.69;48.76
67131;HTU21D;54051;53.464;49.532;2023-06-14T09:39:02;23.58;48.82
67131;HTU21D;54051;53.464;49.532;2023-06-14T09:41:39;23.57;45.33
67131;HTU21D;54051;53.464;49.532;2023-06-14T09:44:07;23.66;44.47
67131;HTU21D;54051;53.464;49.532;2023-06-14T09:46:35;23.66;44.25
67131;HTU21D;54051;53.464;49.532;2023-06-14T09:49:04;23.94;42.75
67131;HTU21D;54051;53.464;49.532;2023-06-14T09:51:30;24.35;42.28
67131;HTU21D;54051;53.464;49.532;2023-06-14T09:54:05;24.70;40.42
67131;HTU21D;54051;53.464;49.532;2023-06-14T09:56:36;24.80;44.70
67131;HTU21D;54051;53.464;49.532;2023-06-14T09:59:05;24.91;41.77
67131;HTU21D;54051;53.464;49.532;2023-06-14T10:01:34;24.86;43.58
67131;HTU21D;54051;53.464;49.532;2023-06-14T10:04:06;24.26;45.45
67131;HTU21D;54051;53.464;49.532;2023-06-14T10:06:39;23.69;47.24
67131;HTU21D;54051;53.464;49.532;2023-06-14T10:09:09;23.36;48.31
67131;HTU21D;54051;53.464;49.532;2023-06-14T10:11:36;22.98;48.74
67131;HTU21D;54051;53.464;49.532;2023-06-14T10:14:05;22.75;49.77
67131;HTU21D;54051;53.464;49.532;2023-06-14T10:16:32;22.68;50.66
67131;HTU21D;54051;53.464;49.532;2023-06-14T10:22:02;22.69;51.22
67131;HTU21D;54051;53.464;49.532;2023-06-14T10:24:40;22.70;51.55
67131;HTU21D;54051;53.464;49.532;2023-06-14T10:27:08;22.55;50.66
67131;HTU21D;54051;53.464;49.532;2023-06-14T10:32:25;22.43;49.63
67131;HTU21D;54051;53.464;49.532;2023-06-14T10:35:20;22.31;49.57
67131;HTU21D;54051;53.464;49.532;2023-06-14T10:37:46;22.36;48.87
67131;HTU21D;54051;53.464;49.532;2023-06-14T10:40:29;22.35;48.66
67131;HTU21D;54051;53.464;49.532;2023-06-14T10:42:55;22.54;48.24
67131;HTU21D;54051;53.464;49.532;2023-06-14T10:45:21;22.73;46.89
67131;HTU21D;54051;53.464;49.532;2023-06-14T10:47:49;22.73;47.01
67131;HTU21D;54051;53.464;49.532;2023-06-14T10:50:27;22.55;47.54
67131;HTU21D;54051;53.464;49.532;2023-06-14T10:52:55;22.54;48.02
67131;HTU21D;54051;53.464;49.532;2023-06-14T10:55:22;22.60;48.18
67131;HTU21D;54051;53.464;49.532;2023-06-14T10:57:53;22.70;47.96
67131;HTU21D;54051;53.464;49.532;2023-06-14T11:00:28;22.67;48.19
67131;HTU21D;54051;53.464;49.532;2023-06-14T11:03:28;22.65;48.15
67131;HTU21D;54051;53.464;49.532;2023-06-14T11:05:58;22.71;48.33
67131;HTU21D;54051;53.464;49.532;2023-06-14T11:11:08;22.91;48.01
67131;HTU21D;54051;53.464;49.532;2023-06-14T11:13:37;22.77;48.44
67131;HTU21D;54051;53.464;49.532;2023-06-14T11:16:17;22.92;48.25
67131;HTU21D;54051;53.464;49.532;2023-06-14T11:18:44;23.14;47.54
67131;HTU21D;54051;53.464;49.532;2023-06-14T11:21:11;23.32;46.81
67131;HTU21D;54051;53.464;49.532;2023-06-14T11:23:37;23.31;46.15
67131;HTU21D;54051;53.464;49.532;2023-06-14T11:26:03;23.29;46.40
67131;HTU21D;54051;53.464;49.532;2023-06-14T11:28:37;23.47;45.66
67131;HTU21D;54051;53.464;49.532;2023-06-14T11:31:04;23.53;46.12
67131;HTU21D;54051;53.464;49.532;2023-06-14T11:33:30;23.56;45.99
67131;HTU21D;54051;53.464;49.532;2023-06-14T11:35:56;23.41;46.42
67131;HTU21D;54051;53.464;49.532;2023-06-14T11:38:22;23.16;47.72
67131;HTU21D;54051;53.464;49.532;2023-06-14T11:40:48;23.12;47.84
67131;HTU21D;54051;53.464;49.532;2023-06-14T11:43:14;23.05;47.92
67131;HTU21D;54051;53.464;49.532;2023-06-14T11:45:40;22.79;49.08
67131;HTU21D;54051;53.464;49.532;2023-06-14T11:48:06;22.80;49.02
67131;HTU21D;54051;53.464;49.532;2023-06-14T11:50:37;22.91;48.96
67131;HTU21D;54051;53.464;49.532;2023-06-14T11:53:04;22.95;49.32
67131;HTU21D;54051;53.464;49.532;2023-06-14T11:55:37;22.95;49.14
67131;HTU21D;54051;53.464;49.532;2023-06-14T11:58:05;22.87;49.27
67131;HTU21D;54051;53.464;49.532;2023-06-14T12:00:31;22.98;49.34
67131;HTU21D;54051;53.464;49.532;2023-06-14T12:02:57;23.06;49.10
67131;HTU21D;54051;53.464;49.532;2023-06-14T12:05:25;23.17;49.00
67131;HTU21D;54051;53.464;49.532;2023-06-14T12:07:58;23.20;48.53
67131;HTU21D;54051;53.464;49.532;2023-06-14T12:10:26;23.11;48.92
67131;HTU21D;54051;53.464;49.532;2023-06-14T12:12:57;23.07;49.02
67131;HTU21D;54051;53.464;49.532;2023-06-14T12:15:24;23.12;48.67
67131;HTU21D;54051;53.464;49.532;2023-06-14T12:17:50;23.11;48.41
67131;HTU21D;54051;53.464;49.532;2023-06-14T12:20:18;23.08;48.41
67131;HTU21D;54051;53.464;49.532;2023-06-14T12:22:54;23.11;48.44
67131;HTU21D;54051;53.464;49.532;2023-06-14T12:25:32;23.20;48.36
67131;HTU21D;54051;53.464;49.532;2023-06-14T12:28:03;23.28;48.22
67131;HTU21D;54051;53.464;49.532;2023-06-14T12:30:29;23.36;47.86
67131;HTU21D;54051;53.464;49.532;2023-06-14T12:32:55;23.43;47.65
67131;HTU21D;54051;53.464;49.532;2023-06-14T12:35:21;23.39;47.76
67131;HTU21D;54051;53.464;49.532;2023-06-14T12:37:47;23.40;47.49
67131;HTU21D;54051;53.464;49.532;2023-06-14T12:40:14;23.44;47.41
67131;HTU21D;54051;53.464;49.532;2023-06-14T12:42:40;23.46;46.85
67131;HTU21D;54051;53.464;49.532;2023-06-14T12:45:07;23.65;46.82
67131;HTU21D;54051;53.464;49.532;2023-06-14T12:47:33;23.87;45.31
67131;HTU21D;54051;53.464;49.532;2023-06-14T12:49:59;23.88;44.74
67131;HTU21D;54051;53.464;49.532;2023-06-14T12:52:25;23.91;45.15
67131;HTU21D;54051;53.464;49.532;2023-06-14T12:54:51;24.08;44.65
67131;HTU21D;54051;53.464;49.532;2023-06-14T12:57:17;23.95;45.11
67131;HTU21D;54051;53.464;49.532;2023-06-14T12:59:43;23.74;44.70
67131;HTU21D;54051;53.464;49.532;2023-06-14T13:02:15;23.76;44.54
67131;HTU21D;54051;53.464;49.532;2023-06-14T13:04:41;24.01;44.19
67131;HTU21D;54051;53.464;49.532;2023-06-14T13:07:07;24.14;44.07
67131;HTU21D;54051;53.464;49.532;2023-06-14T13:09:33;24.33;43.22
67131;HTU21D;54051;53.464;49.532;2023-06-14T13:12:00;24.38;43.63
67131;HTU21D;54051;53.464;49.532;2023-06-14T13:14:26;24.28;43.15
67131;HTU21D;54051;53.464;49.532;2023-06-14T13:16:52;24.31;43.42
67131;HTU21D;54051;53.464;49.532;2023-06-14T13:19:18;24.50;43.35
67131;HTU21D;54051;53.464;49.532;2023-06-14T13:21:44;24.39;44.16
67131;HTU21D;54051;53.464;49.532;2023-06-14T13:24:10;24.28;44.13
67131;HTU21D;54051;53.464;49.532;2023-06-14T13:26:36;24.19;44.02
67131;HTU21D;54051;53.464;49.532;2023-06-14T13:29:02;24.18;44.59
67131;HTU21D;54051;53.464;49.532;2023-06-14T13:31:29;24.00;44.80
67131;HTU21D;54051;53.464;49.532;2023-06-14T13:33:55;23.87;45.11
67131;HTU21D;54051;53.464;49.532;2023-06-14T13:36:21;23.73;45.80
67131;HTU21D;54051;53.464;49.532;2023-06-14T13:38:47;23.77;45.44
67131;HTU21D;54051;53.464;49.532;2023-06-14T13:41:13;23.85;45.73
67131;HTU21D;54051;53.464;49.532;2023-06-14T13:43:39;23.88;45.86
67131;HTU21D;54051;53.464;49.532;2023-06-14T13:46:06;23.88;45.73
67131;HTU21D;54051;53.464;49.532;2023-06-14T13:48:32;23.91;45.74
67131;HTU21D;54051;53.464;49.532;2023-06-14T13:51:00;24.00;45.03
67131;HTU21D;54051;53.464;49.532;2023-06-14T13:53:26;24.11;45.02
67131;HTU21D;54051;53.464;49.532;2023-06-14T13:55:52;24.18;44.64
67131;HTU21D;54051;53.464;49.532;2023-06-14T13:58:19;24.15;45.01
67131;HTU21D;54051;53.464;49.532;2023-06-14T14:00:45;24.08;44.59
67131;HTU21D;54051;53.464;49.532;2023-06-14T14:03:11;24.02;48.45
67131;HTU21D;54051;53.464;49.532;2023-06-14T14:05:37;23.65;51.46
67131;HTU21D;54051;53.464;49.532;2023-06-14T14:08:03;23.52;52.13
67131;HTU21D;54051;53.464;49.532;2023-06-14T14:10:29;23.51;53.50
67131;HTU21D;54051;53.464;49.532;2023-06-14T14:12:56;23.49;52.43
67131;HTU21D;54051;53.464;49.532;2023-06-14T14:15:23;23.52;52.07
67131;HTU21D;54051;53.464;49.532;2023-06-14T14:17:49;23.50;48.92
67131;HTU21D;54051;53.464;49.532;2023-06-14T14:20:18;23.43;48.00
67131;HTU21D;54051;53.464;49.532;2023-06-14T14:22:44;23.44;48.02
67131;HTU21D;54051;53.464;49.532;2023-06-14T14:25:12;23.37;50.36
67131;HTU21D;54051;53.464;49.532;2023-06-14T14:27:38;23.16;57.24
67131;HTU21D;54051;53.464;49.532;2023-06-14T14:30:05;23.12;54.45
67131;HTU21D;54051;53.464;49.532;2023-06-14T14:32:31;23.08;55.82
67131;HTU21D;54051;53.464;49.532;2023-06-14T14:34:58;23.00;54.57
67131;HTU21D;54051;53.464;49.532;2023-06-14T14:37:24;22.95;55.27
67131;HTU21D;54051;53.464;49.532;2023-06-14T14:39:50;22.82;55.83
67131;HTU21D;54051;53.464;49.532;2023-06-14T14:42:16;22.71;58.20
67131;HTU21D;54051;53.464;49.532;2023-06-14T14:44:42;22.68;56.75
67131;HTU21D;54051;53.464;49.532;2023-06-14T14:47:10;22.76;56.97
67131;HTU21D;54051;53.464;49.532;2023-06-14T14:49:38;22.90;55.00
67131;HTU21D;54051;53.464;49.532;2023-06-14T14:52:05;23.00;55.62
67131;HTU21D;54051;53.464;49.532;2023-06-14T14:54:34;22.82;54.79
67131;HTU21D;54051;53.464;49.532;2023-06-14T14:57:01;22.69;55.92
67131;HTU21D;54051;53.464;49.532;2023-06-14T14:59:33;22.73;55.83
67131;HTU21D;54051;53.464;49.532;2023-06-14T15:01:59;22.79;54.50
67131;HTU21D;54051;53.464;49.532;2023-06-14T15:04:25;22.86;53.96
67131;HTU21D;54051;53.464;49.532;2023-06-14T15:06:51;22.84;52.84
67131;HTU21D;54051;53.464;49.532;2023-06-14T15:09:17;22.77;52.74
67131;HTU21D;54051;53.464;49.532;2023-06-14T15:11:43;22.70;52.94
67131;HTU21D;54051;53.464;49.532;2023-06-14T15:14:10;22.65;53.48